sensor_id;sensor_type;location;lat;lon;timestamp;pressure;altitude;pressure_sealevel;temperature;humidity
24858;BME280;12935;50.782;6.074;2023-05-07T00:00:45;99465.13;;;14.78;100.00
24858;BME280;12935;50.782;6.074;2023-05-07T00:03:11;99466.69;;;14.79;100.00
24858;BME280;12935;50.782;6.074;2023-05-07T00:05:36;99473.69;;;14.80;100.00
24858;BME280;12935;50.782;6.074;2023-05-07T00:08:03;99465.03;;;14.81;100.00
24858;BME280;12935;50.782;6.074;2023-05-07T00:10:28;99471.25;;;14.85;100.00
24858;BME280;12935;50.782;6.074;2023-05-07T00:12:53;99465.31;;;14.87;100.00
24858;BME280;12935;50.782;6.074;2023-05-07T00:15:19;99458.63;;;14.88;100.00
24858;BME280;12935;50.782;6.074;2023-05-07T00:17:44;99458.56;;;14.91;100.00
24858;BME280;12935;50.782;6.074;2023-05-07T00:20:10;99470.69;;;14.94;100.00
24858;BME280;12935;50.782;6.074;2023-05-07T00:22:35;99467.94;;;14.94;100.00
24858;BME280;12935;50.782;6.074;2023-05-07T00:25:01;99471.91;;;14.93;100.00
24858;BME280;12935;50.782;6.074;2023-05-07T00:27:26;99466.28;;;14.96;100.00
24858;BME280;12935;50.782;6.074;2023-05-07T00:29:51;99470.59;;;14.97;100.00
24858;BME280;12935;50.782;6.074;2023-05-07T00:32:17;99459.47;;;14.85;100.00
24858;BME280;12935;50.782;6.074;2023-05-07T00:34:43;99469.84;;;14.77;100.00
24858;BME280;12935;50.782;6.074;2023-05-07T00:37:08;99463.69;;;14.69;100.00
24858;BME280;12935;50.782;6.074;2023-05-07T00:39:35;99465.59;;;14.72;100.00
24858;BME280;12935;50.782;6.074;2023-05-07T00:42:00;99468.78;;;14.71;100.00
24858;BME280;12935;50.782;6.074;2023-05-07T00:44:26;99458.53;;;14.71;100.00
24858;BME280;12935;50.782;6.074;2023-05-07T00:46:52;99460.56;;;14.67;100.00
24858;BME280;12935;50.782;6.074;2023-05-07T00:49:18;99454.22;;;14.51;100.00
24858;BME280;12935;50.782;6.074;2023-05-07T00:51:45;99459.44;;;14.45;100.00
24858;BME280;12935;50.782;6.074;2023-05-07T00:54:10;99455.78;;;14.52;100.00
24858;BME280;12935;50.782;6.074;2023-05-07T00:56:36;99453.22;;;14.41;100.00
24858;BME280;12935;50.782;6.074;2023-05-07T00:59:02;99458.91;;;14.30;100.00
24858;BME280;12935;50.782;6.074;2023-05-07T01:01:28;99456.81;;;14.15;100.00
24858;BME280;12935;50.782;6.074;2023-05-07T01:03:53;99456.50;;;14.09;100.00
24858;BME280;12935;50.782;6.074;2023-05-07T01:06:19;99452.31;;;14.01;100.00
24858;BME280;12935;50.782;6.074;2023-05-07T01:08:46;99452.03;;;13.95;100.00
24858;BME280;12935;50.782;6.074;2023-05-07T01:11:12;99450.00;;;13.99;100.00
24858;BME280;12935;50.782;6.074;2023-05-07T01:13:39;99447.06;;;14.10;100.00
24858;BME280;12935;50.782;6.074;2023-05-07T01:16:05;99445.72;;;14.18;100.00
24858;BME280;12935;50.782;6.074;2023-05-07T01:18:31;99457.13;;;14.17;100.00
24858;BME280;12935;50.782;6.074;2023-05-07T01:20:58;99449.19;;;14.22;100.00
24858;BME280;12935;50.782;6.074;2023-05-07T01:23:24;99438.94;;;14.26;100.00
24858;BME280;12935;50.782;6.074;2023-05-07T01:25:54;99440.91;;;14.26;100.00
24858;BME280;12935;50.782;6.074;2023-05-07T01:28:20;99436.50;;;14.32;100.00
24858;BME280;12935;50.782;6.074;2023-05-07T01:30:52;99434.06;;;14.34;100.00
24858;BME280;12935;50.782;6.074;2023-05-07T01:33:22;99438.38;;;14.35;100.00
24858;BME280;12935;50.782;6.074;2023-05-07T01:35:50;99433.66;;;14.35;100.00
24858;BME280;12935;50.782;6.074;2023-05-07T01:38:17;99437.19;;;14.36;100.00
24858;BME280;12935;50.782;6.074;2023-05-07T01:40:43;99423.84;;;14.34;100.00
24858;BME280;12935;50.782;6.074;2023-05-07T01:43:09;99442.25;;;14.37;100.00
24858;BME280;12935;50.782;6.074;2023-05-07T01:45:34;99432.88;;;14.35;100.00
24858;BME280;12935;50.782;6.074;2023-05-07T01:48:01;99426.19;;;14.36;100.00
24858;BME280;12935;50.782;6.074;2023-05-07T01:50:27;99422.28;;;14.33;100.00
24858;BME280;12935;50.782;6.074;2023-05-07T01:52:53;99420.69;;;14.36;100.00
24858;BME280;12935;50.782;6.074;2023-05-07T01:55:18;99420.25;;;14.37;100.00
24858;BME280;12935;50.782;6.074;2023-05-07T01:57:44;99415.97;;;14.36;100.00
24858;BME280;12935;50.782;6.074;2023-05-07T02:00:10;99421.09;;;14.34;100.00
24858;BME280;12935;50.782;6.074;2023-05-07T02:02:35;99418.34;;;14.34;100.00
24858;BME280;12935;50.782;6.074;2023-05-07T02:05:01;99421.19;;;14.31;100.00
24858;BME280;12935;50.782;6.074;2023-05-07T02:07:27;99423.56;;;14.29;100.00
24858;BME280;12935;50.782;6.074;2023-05-07T02:09:52;99421.19;;;14.31;100.00
24858;BME280;12935;50.782;6.074;2023-05-07T02:12:18;99423.16;;;14.30;100.00
24858;BME280;12935;50.782;6.074;2023-05-07T02:14:43;99425.13;;;14.30;100.00
24858;BME280;12935;50.782;6.074;2023-05-07T02:17:08;99431.06;;;14.28;100.00
24858;BME280;12935;50.782;6.074;2023-05-07T02:19:33;99428.91;;;14.16;100.00
24858;BME280;12935;50.782;6.074;2023-05-07T02:21:59;99429.84;;;14.06;100.00
24858;BME280;12935;50.782;6.074;2023-05-07T02:24:24;99433.84;;;14.01;100.00
24858;BME280;12935;50.782;6.074;2023-05-07T02:26:50;99439.53;;;13.91;100.00
24858;BME280;12935;50.782;6.074;2023-05-07T02:29:15;99437.06;;;13.73;100.00
24858;BME280;12935;50.782;6.074;2023-05-07T02:31:40;99441.13;;;13.65;100.00
24858;BME280;12935;50.782;6.074;2023-05-07T02:34:05;99443.34;;;13.74;100.00
24858;BME280;12935;50.782;6.074;2023-05-07T02:36:31;99450.97;;;13.86;100.00
24858;BME280;12935;50.782;6.074;2023-05-07T02:38:56;99450.16;;;13.89;100.00
24858;BME280;12935;50.782;6.074;2023-05-07T02:41:21;99448.59;;;13.88;100.00
24858;BME280;12935;50.782;6.074;2023-05-07T02:43:47;99451.19;;;13.98;100.00
24858;BME280;12935;50.782;6.074;2023-05-07T02:46:12;99445.34;;;13.96;100.00
24858;BME280;12935;50.782;6.074;2023-05-07T02:48:37;99443.78;;;13.95;100.00
24858;BME280;12935;50.782;6.074;2023-05-07T02:51:03;99446.81;;;14.01;100.00
24858;BME280;12935;50.782;6.074;2023-05-07T02:53:29;99442.94;;;13.98;100.00
24858;BME280;12935;50.782;6.074;2023-05-07T02:55:59;99441.25;;;13.81;100.00
24858;BME280;12935;50.782;6.074;2023-05-07T02:58:25;99450.13;;;13.65;100.00
24858;BME280;12935;50.782;6.074;2023-05-07T03:00:51;99435.88;;;13.74;100.00
24858;BME280;12935;50.782;6.074;2023-05-07T03:03:17;99437.31;;;13.82;100.00
24858;BME280;12935;50.782;6.074;2023-05-07T03:05:42;99436.06;;;13.87;100.00
24858;BME280;12935;50.782;6.074;2023-05-07T03:08:08;99436.78;;;13.91;100.00
24858;BME280;12935;50.782;6.074;2023-05-07T03:10:33;99441.13;;;13.88;100.00
24858;BME280;12935;50.782;6.074;2023-05-07T03:13:00;99438.81;;;13.87;100.00
24858;BME280;12935;50.782;6.074;2023-05-07T03:15:26;99433.25;;;13.90;100.00
24858;BME280;12935;50.782;6.074;2023-05-07T03:17:51;99435.19;;;13.93;100.00
24858;BME280;12935;50.782;6.074;2023-05-07T03:20:16;99427.75;;;13.90;100.00
24858;BME280;12935;50.782;6.074;2023-05-07T03:22:42;99431.09;;;13.78;100.00
24858;BME280;12935;50.782;6.074;2023-05-07T03:25:08;99429.09;;;13.82;100.00
24858;BME280;12935;50.782;6.074;2023-05-07T03:27:34;99429.44;;;13.84;100.00
24858;BME280;12935;50.782;6.074;2023-05-07T03:29:59;99419.25;;;13.85;100.00
24858;BME280;12935;50.782;6.074;2023-05-07T03:32:25;99416.50;;;13.85;100.00
24858;BME280;12935;50.782;6.074;2023-05-07T03:34:50;99416.78;;;13.90;100.00
24858;BME280;12935;50.782;6.074;2023-05-07T03:37:15;99412.88;;;13.88;100.00
24858;BME280;12935;50.782;6.074;2023-05-07T03:39:41;99412.88;;;13.88;100.00
24858;BME280;12935;50.782;6.074;2023-05-07T03:42:06;99417.59;;;13.87;100.00
24858;BME280;12935;50.782;6.074;2023-05-07T03:44:32;99423.59;;;13.82;100.00
24858;BME280;12935;50.782;6.074;2023-05-07T03:46:57;99424.09;;;13.74;100.00
24858;BME280;12935;50.782;6.074;2023-05-07T03:49:22;99428.31;;;13.82;100.00
24858;BME280;12935;50.782;6.074;2023-05-07T03:51:48;99429.38;;;13.88;100.00
24858;BME280;12935;50.782;6.074;2023-05-07T03:54:13;99427.16;;;13.79;100.00
24858;BME280;12935;50.782;6.074;2023-05-07T03:56:38;99420.53;;;13.77;100.00
24858;BME280;12935;50.782;6.074;2023-05-07T03:59:04;99425.47;;;13.85;100.00
24858;BME280;12935;50.782;6.074;2023-05-07T04:01:29;99434.88;;;13.88;100.00
24858;BME280;12935;50.782;6.074;2023-05-07T04:03:55;99424.59;;;13.92;100.00
24858;BME280;12935;50.782;6.074;2023-05-07T04:06:20;99428.97;;;13.89;100.00
24858;BME280;12935;50.782;6.074;2023-05-07T04:08:45;99426.69;;;13.84;100.00
24858;BME280;12935;50.782;6.074;2023-05-07T04:11:11;99428.41;;;13.75;100.00
24858;BME280;12935;50.782;6.074;2023-05-07T04:13:36;99433.66;;;13.65;100.00
24858;BME280;12935;50.782;6.074;2023-05-07T04:16:03;99430.19;;;13.61;100.00
24858;BME280;12935;50.782;6.074;2023-05-07T04:18:29;99428.59;;;13.64;100.00
24858;BME280;12935;50.782;6.074;2023-05-07T04:20:54;99429.97;;;13.76;100.00
24858;BME280;12935;50.782;6.074;2023-05-07T04:23:20;99426.63;;;13.88;100.00
24858;BME280;12935;50.782;6.074;2023-05-07T04:25:45;99425.78;;;13.91;100.00
24858;BME280;12935;50.782;6.074;2023-05-07T04:28:11;99420.66;;;13.93;100.00
24858;BME280;12935;50.782;6.074;2023-05-07T04:30:36;99410.41;;;13.97;100.00
24858;BME280;12935;50.782;6.074;2023-05-07T04:33:02;99418.75;;;13.90;100.00
24858;BME280;12935;50.782;6.074;2023-05-07T04:35:27;99417.38;;;13.78;100.00
24858;BME280;12935;50.782;6.074;2023-05-07T04:37:52;99416.28;;;13.72;100.00
24858;BME280;12935;50.782;6.074;2023-05-07T04:40:18;99412.25;;;13.80;100.00
24858;BME280;12935;50.782;6.074;2023-05-07T04:42:43;99416.72;;;13.94;100.00
24858;BME280;12935;50.782;6.074;2023-05-07T04:45:09;99420.13;;;14.01;100.00
24858;BME280;12935;50.782;6.074;2023-05-07T04:47:35;99425.56;;;14.05;100.00
24858;BME280;12935;50.782;6.074;2023-05-07T04:50:00;99419.28;;;14.04;100.00
24858;BME280;12935;50.782;6.074;2023-05-07T04:52:27;99430.28;;;14.04;100.00
24858;BME280;12935;50.782;6.074;2023-05-07T04:54:52;99424.41;;;14.02;100.00
24858;BME280;12935;50.782;6.074;2023-05-07T04:57:17;99422.53;;;13.99;100.00
24858;BME280;12935;50.782;6.074;2023-05-07T04:59:43;99427.28;;;13.95;100.00
24858;BME280;12935;50.782;6.074;2023-05-07T05:02:10;99429.78;;;13.86;100.00
24858;BME280;12935;50.782;6.074;2023-05-07T05:04:35;99432.84;;;13.92;100.00
24858;BME280;12935;50.782;6.074;2023-05-07T05:07:02;99438.09;;;14.06;100.00
24858;BME280;12935;50.782;6.074;2023-05-07T05:09:28;99449.34;;;14.15;100.00
24858;BME280;12935;50.782;6.074;2023-05-07T05:11:54;99450.94;;;14.13;100.00
24858;BME280;12935;50.782;6.074;2023-05-07T05:14:19;99451.31;;;14.15;100.00
24858;BME280;12935;50.782;6.074;2023-05-07T05:16:44;99453.75;;;14.09;100.00
24858;BME280;12935;50.782;6.074;2023-05-07T05:19:10;99453.75;;;14.09;100.00
24858;BME280;12935;50.782;6.074;2023-05-07T05:21:35;99450.28;;;14.28;100.00
24858;BME280;12935;50.782;6.074;2023-05-07T05:24:00;99454.63;;;14.49;100.00
24858;BME280;12935;50.782;6.074;2023-05-07T05:26:26;99463.91;;;14.59;100.00
24858;BME280;12935;50.782;6.074;2023-05-07T05:28:51;99469.53;;;14.52;100.00
24858;BME280;12935;50.782;6.074;2023-05-07T05:31:16;99465.78;;;14.42;100.00
24858;BME280;12935;50.782;6.074;2023-05-07T05:33:42;99465.81;;;14.38;100.00
24858;BME280;12935;50.782;6.074;2023-05-07T05:36:09;99460.38;;;14.35;100.00
24858;BME280;12935;50.782;6.074;2023-05-07T05:38:34;99465.44;;;14.36;100.00
24858;BME280;12935;50.782;6.074;2023-05-07T05:40:59;99457.88;;;14.44;100.00
24858;BME280;12935;50.782;6.074;2023-05-07T05:43:25;99469.66;;;14.45;100.00
24858;BME280;12935;50.782;6.074;2023-05-07T05:45:50;99473.88;;;14.49;100.00
24858;BME280;12935;50.782;6.074;2023-05-07T05:48:15;99469.88;;;14.54;100.00
24858;BME280;12935;50.782;6.074;2023-05-07T05:50:42;99466.00;;;14.51;100.00
24858;BME280;12935;50.782;6.074;2023-05-07T05:53:07;99471.84;;;14.53;100.00
24858;BME280;12935;50.782;6.074;2023-05-07T05:55:32;99474.97;;;14.55;100.00
24858;BME280;12935;50.782;6.074;2023-05-07T05:57:59;99470.59;;;14.58;100.00
24858;BME280;12935;50.782;6.074;2023-05-07T06:00:25;99468.63;;;14.58;100.00
24858;BME280;12935;50.782;6.074;2023-05-07T06:02:50;99476.81;;;14.62;100.00
24858;BME280;12935;50.782;6.074;2023-05-07T06:05:15;99474.75;;;14.66;100.00
24858;BME280;12935;50.782;6.074;2023-05-07T06:07:41;99475.09;;;14.68;100.00
24858;BME280;12935;50.782;6.074;2023-05-07T06:10:07;99476.91;;;14.78;100.00
24858;BME280;12935;50.782;6.074;2023-05-07T06:12:32;99480.50;;;14.95;100.00
24858;BME280;12935;50.782;6.074;2023-05-07T06:14:57;99471.59;;;14.87;100.00
24858;BME280;12935;50.782;6.074;2023-05-07T06:17:23;99478.50;;;14.95;100.00
24858;BME280;12935;50.782;6.074;2023-05-07T06:19:48;99483.88;;;15.02;100.00
24858;BME280;12935;50.782;6.074;2023-05-07T06:22:13;99477.16;;;15.03;100.00
24858;BME280;12935;50.782;6.074;2023-05-07T06:24:38;99483.81;;;15.06;100.00
24858;BME280;12935;50.782;6.074;2023-05-07T06:27:04;99488.31;;;15.16;100.00
24858;BME280;12935;50.782;6.074;2023-05-07T06:29:29;99498.06;;;15.21;100.00
24858;BME280;12935;50.782;6.074;2023-05-07T06:31:56;99496.09;;;15.21;100.00
24858;BME280;12935;50.782;6.074;2023-05-07T06:34:21;99498.34;;;15.26;100.00
24858;BME280;12935;50.782;6.074;2023-05-07T06:36:47;99489.84;;;15.37;100.00
24858;BME280;12935;50.782;6.074;2023-05-07T06:39:12;99486.66;;;15.38;100.00
24858;BME280;12935;50.782;6.074;2023-05-07T06:41:37;99491.44;;;15.54;100.00
24858;BME280;12935;50.782;6.074;2023-05-07T06:44:04;99489.94;;;15.69;100.00
24858;BME280;12935;50.782;6.074;2023-05-07T06:46:30;99485.31;;;15.83;100.00
24858;BME280;12935;50.782;6.074;2023-05-07T06:48:55;99491.00;;;15.92;100.00
24858;BME280;12935;50.782;6.074;2023-05-07T06:51:21;99497.91;;;16.00;100.00
24858;BME280;12935;50.782;6.074;2023-05-07T06:53:47;99499.78;;;16.03;100.00
24858;BME280;12935;50.782;6.074;2023-05-07T06:56:12;99500.81;;;16.09;100.00
24858;BME280;12935;50.782;6.074;2023-05-07T06:58:37;99503.06;;;16.14;100.00
24858;BME280;12935;50.782;6.074;2023-05-07T07:01:03;99498.69;;;16.17;100.00
24858;BME280;12935;50.782;6.074;2023-05-07T07:03:28;99508.16;;;16.32;100.00
24858;BME280;12935;50.782;6.074;2023-05-07T07:05:54;99496.41;;;16.44;100.00
24858;BME280;12935;50.782;6.074;2023-05-07T07:08:20;99505.44;;;16.44;100.00
24858;BME280;12935;50.782;6.074;2023-05-07T07:10:46;99503.13;;;16.43;100.00
24858;BME280;12935;50.782;6.074;2023-05-07T07:13:12;99501.84;;;16.47;100.00
24858;BME280;12935;50.782;6.074;2023-05-07T07:15:37;99512.44;;;16.49;100.00
24858;BME280;12935;50.782;6.074;2023-05-07T07:18:03;99508.34;;;16.54;100.00
24858;BME280;12935;50.782;6.074;2023-05-07T07:20:28;99502.25;;;16.62;100.00
24858;BME280;12935;50.782;6.074;2023-05-07T07:22:53;99509.56;;;16.69;100.00
24858;BME280;12935;50.782;6.074;2023-05-07T07:25:18;99506.88;;;16.81;100.00
24858;BME280;12935;50.782;6.074;2023-05-07T07:27:44;99504.00;;;16.85;100.00
24858;BME280;12935;50.782;6.074;2023-05-07T07:30:09;99508.22;;;16.90;100.00
24858;BME280;12935;50.782;6.074;2023-05-07T07:32:35;99508.25;;;17.02;100.00
24858;BME280;12935;50.782;6.074;2023-05-07T07:35:00;99508.78;;;17.26;100.00
24858;BME280;12935;50.782;6.074;2023-05-07T07:37:26;99506.81;;;17.52;100.00
24858;BME280;12935;50.782;6.074;2023-05-07T07:39:51;99505.84;;;17.59;100.00
24858;BME280;12935;50.782;6.074;2023-05-07T07:42:17;99512.28;;;17.81;100.00
24858;BME280;12935;50.782;6.074;2023-05-07T07:44:43;99511.97;;;18.04;100.00
24858;BME280;12935;50.782;6.074;2023-05-07T07:47:08;99510.28;;;18.19;100.00
24858;BME280;12935;50.782;6.074;2023-05-07T07:49:34;99512.25;;;18.32;100.00
24858;BME280;12935;50.782;6.074;2023-05-07T07:51:59;99518.34;;;18.27;100.00
24858;BME280;12935;50.782;6.074;2023-05-07T07:54:25;99522.56;;;18.18;100.00
24858;BME280;12935;50.782;6.074;2023-05-07T07:56:50;99513.06;;;18.19;100.00
24858;BME280;12935;50.782;6.074;2023-05-07T07:59:16;99517.25;;;18.24;100.00
24858;BME280;12935;50.782;6.074;2023-05-07T08:01:44;99511.06;;;18.20;100.00
24858;BME280;12935;50.782;6.074;2023-05-07T08:04:09;99519.00;;;18.31;100.00
24858;BME280;12935;50.782;6.074;2023-05-07T08:06:35;99514.78;;;18.39;100.00
24858;BME280;12935;50.782;6.074;2023-05-07T08:09:00;99515.63;;;18.61;100.00
24858;BME280;12935;50.782;6.074;2023-05-07T08:11:26;99514.63;;;18.89;100.00
24858;BME280;12935;50.782;6.074;2023-05-07T08:13:51;99522.84;;;19.15;100.00
24858;BME280;12935;50.782;6.074;2023-05-07T08:16:16;99521.88;;;19.31;100.00
24858;BME280;12935;50.782;6.074;2023-05-07T08:18:42;99526.53;;;19.43;100.00
24858;BME280;12935;50.782;6.074;2023-05-07T08:21:07;99524.94;;;19.54;100.00
24858;BME280;12935;50.782;6.074;2023-05-07T08:23:32;99529.66;;;19.67;100.00
24858;BME280;12935;50.782;6.074;2023-05-07T08:25:59;99529.69;;;19.76;100.00
24858;BME280;12935;50.782;6.074;2023-05-07T08:28:25;99517.00;;;19.66;100.00
24858;BME280;12935;50.782;6.074;2023-05-07T08:30:50;99512.94;;;19.57;100.00
24858;BME280;12935;50.782;6.074;2023-05-07T08:33:16;99517.78;;;19.44;100.00
24858;BME280;12935;50.782;6.074;2023-05-07T08:35:41;99520.22;;;19.42;100.00
24858;BME280;12935;50.782;6.074;2023-05-07T08:38:07;99519.50;;;19.73;100.00
24858;BME280;12935;50.782;6.074;2023-05-07T08:40:36;99522.31;;;19.82;100.00
24858;BME280;12935;50.782;6.074;2023-05-07T08:43:02;99524.41;;;19.69;100.00
24858;BME280;12935;50.782;6.074;2023-05-07T08:45:30;99523.34;;;19.75;100.00
24858;BME280;12935;50.782;6.074;2023-05-07T08:48:14;99530.88;;;20.15;100.00
24858;BME280;12935;50.782;6.074;2023-05-07T08:50:41;99522.47;;;20.27;100.00
24858;BME280;12935;50.782;6.074;2023-05-07T08:53:06;99527.53;;;20.20;100.00
24858;BME280;12935;50.782;6.074;2023-05-07T08:55:32;99530.88;;;20.15;100.00
24858;BME280;12935;50.782;6.074;2023-05-07T08:57:58;99523.56;;;20.30;100.00
24858;BME280;12935;50.782;6.074;2023-05-07T09:00:24;99523.44;;;20.52;100.00
24858;BME280;12935;50.782;6.074;2023-05-07T09:02:49;99516.22;;;20.63;100.00
24858;BME280;12935;50.782;6.074;2023-05-07T09:05:15;99519.28;;;20.65;100.00
24858;BME280;12935;50.782;6.074;2023-05-07T09:07:40;99518.34;;;20.41;100.00
24858;BME280;12935;50.782;6.074;2023-05-07T09:10:06;99520.03;;;20.39;100.00
24858;BME280;12935;50.782;6.074;2023-05-07T09:12:32;99520.84;;;20.66;100.00
24858;BME280;12935;50.782;6.074;2023-05-07T09:14:58;99518.41;;;20.78;100.00
24858;BME280;12935;50.782;6.074;2023-05-07T09:17:24;99515.63;;;20.78;99.64
24858;BME280;12935;50.782;6.074;2023-05-07T09:19:49;99522.69;;;20.70;97.72
24858;BME280;12935;50.782;6.074;2023-05-07T09:22:15;99516.66;;;20.62;96.26
24858;BME280;12935;50.782;6.074;2023-05-07T09:24:40;99519.16;;;21.06;100.00
24858;BME280;12935;50.782;6.074;2023-05-07T09:27:12;99523.47;;;21.16;94.25
24858;BME280;12935;50.782;6.074;2023-05-07T09:29:38;99523.00;;;21.17;90.54
24858;BME280;12935;50.782;6.074;2023-05-07T09:32:05;99532.22;;;21.42;94.69
24858;BME280;12935;50.782;6.074;2023-05-07T09:34:31;99528.59;;;21.78;95.10
24858;BME280;12935;50.782;6.074;2023-05-07T09:36:58;99528.41;;;22.23;93.03
24858;BME280;12935;50.782;6.074;2023-05-07T09:39:25;99528.91;;;22.46;90.70
24858;BME280;12935;50.782;6.074;2023-05-07T09:41:50;99532.16;;;22.44;90.75
24858;BME280;12935;50.782;6.074;2023-05-07T09:44:17;99530.53;;;22.52;87.66
24858;BME280;12935;50.782;6.074;2023-05-07T09:46:43;99527.09;;;22.57;87.16
24858;BME280;12935;50.782;6.074;2023-05-07T09:49:17;99532.69;;;22.57;83.58
24858;BME280;12935;50.782;6.074;2023-05-07T09:51:52;99536.25;;;22.34;78.44
24858;BME280;12935;50.782;6.074;2023-05-07T09:54:18;99529.34;;;22.20;77.78
24858;BME280;12935;50.782;6.074;2023-05-07T09:56:48;99527.63;;;22.23;77.33
24858;BME280;12935;50.782;6.074;2023-05-07T09:59:15;99516.25;;;22.35;76.39
24858;BME280;12935;50.782;6.074;2023-05-07T10:01:42;99521.84;;;22.59;78.02
24858;BME280;12935;50.782;6.074;2023-05-07T10:04:08;99521.75;;;22.68;78.63
24858;BME280;12935;50.782;6.074;2023-05-07T10:06:35;99526.22;;;22.27;77.23
24858;BME280;12935;50.782;6.074;2023-05-07T10:09:01;99530.69;;;22.01;78.83
24858;BME280;12935;50.782;6.074;2023-05-07T10:11:27;99530.19;;;21.60;81.43
24858;BME280;12935;50.782;6.074;2023-05-07T10:13:53;99522.41;;;21.22;84.27
24858;BME280;12935;50.782;6.074;2023-05-07T10:16:19;99530.41;;;21.11;83.34
24858;BME280;12935;50.782;6.074;2023-05-07T10:18:46;99525.78;;;21.26;85.41
24858;BME280;12935;50.782;6.074;2023-05-07T10:21:19;99525.31;;;21.37;89.87
24858;BME280;12935;50.782;6.074;2023-05-07T10:23:53;99540.75;;;21.38;90.55
24858;BME280;12935;50.782;6.074;2023-05-07T10:26:21;99530.41;;;21.39;88.39
24858;BME280;12935;50.782;6.074;2023-05-07T10:28:53;99540.91;;;21.34;86.14
24858;BME280;12935;50.782;6.074;2023-05-07T10:31:45;99538.44;;;21.27;87.60
24858;BME280;12935;50.782;6.074;2023-05-07T10:34:16;99538.63;;;21.24;87.77
24858;BME280;12935;50.782;6.074;2023-05-07T10:36:44;99536.44;;;20.91;93.22
24858;BME280;12935;50.782;6.074;2023-05-07T10:39:10;99541.25;;;20.91;95.20
24858;BME280;12935;50.782;6.074;2023-05-07T10:41:35;99546.34;;;20.92;98.37
24858;BME280;12935;50.782;6.074;2023-05-07T10:44:01;99548.78;;;20.90;96.05
24858;BME280;12935;50.782;6.074;2023-05-07T10:46:27;99547.56;;;20.73;91.77
24858;BME280;12935;50.782;6.074;2023-05-07T10:51:29;99550.78;;;20.72;91.25
24858;BME280;12935;50.782;6.074;2023-05-07T10:56:43;99548.78;;;20.90;91.40
24858;BME280;12935;50.782;6.074;2023-05-07T11:01:49;99553.72;;;20.95;89.97
24858;BME280;12935;50.782;6.074;2023-05-07T11:04:16;99559.91;;;20.99;91.08
24858;BME280;12935;50.782;6.074;2023-05-07T11:15:09;99547.72;;;20.20;90.23
24858;BME280;12935;50.782;6.074;2023-05-07T11:17:53;99547.44;;;20.27;96.14
24858;BME280;12935;50.782;6.074;2023-05-07T11:20:19;99543.66;;;20.43;98.46
24858;BME280;12935;50.782;6.074;2023-05-07T11:22:45;99551.84;;;20.16;100.00
24858;BME280;12935;50.782;6.074;2023-05-07T11:25:17;99556.41;;;19.91;100.00
24858;BME280;12935;50.782;6.074;2023-05-07T11:27:44;99557.19;;;20.01;100.00
24858;BME280;12935;50.782;6.074;2023-05-07T11:30:10;99555.69;;;20.09;100.00
24858;BME280;12935;50.782;6.074;2023-05-07T11:32:36;99558.41;;;19.91;100.00
24858;BME280;12935;50.782;6.074;2023-05-07T11:35:01;99560.31;;;19.72;100.00
24858;BME280;12935;50.782;6.074;2023-05-07T11:37:28;99558.13;;;19.45;100.00
24858;BME280;12935;50.782;6.074;2023-05-07T11:40:08;99566.44;;;19.45;100.00
24858;BME280;12935;50.782;6.074;2023-05-07T11:42:37;99558.13;;;19.45;100.00
24858;BME280;12935;50.782;6.074;2023-05-07T11:45:04;99567.47;;;19.39;100.00
24858;BME280;12935;50.782;6.074;2023-05-07T11:47:30;99568.00;;;19.24;100.00
24858;BME280;12935;50.782;6.074;2023-05-07T11:49:56;99565.63;;;19.36;100.00
24858;BME280;12935;50.782;6.074;2023-05-07T11:52:23;99573.47;;;19.15;100.00
24858;BME280;12935;50.782;6.074;2023-05-07T11:54:54;99575.88;;;18.91;100.00
24858;BME280;12935;50.782;6.074;2023-05-07T11:57:23;99586.56;;;18.80;100.00
24858;BME280;12935;50.782;6.074;2023-05-07T11:59:53;99590.34;;;18.61;100.00
24858;BME280;12935;50.782;6.074;2023-05-07T12:02:19;99585.81;;;18.42;100.00
24858;BME280;12935;50.782;6.074;2023-05-07T12:04:44;99593.03;;;18.27;100.00
24858;BME280;12935;50.782;6.074;2023-05-07T12:07:14;99596.13;;;18.29;100.00
24858;BME280;12935;50.782;6.074;2023-05-07T12:09:43;99600.00;;;18.31;100.00
24858;BME280;12935;50.782;6.074;2023-05-07T12:12:09;99599.22;;;18.31;100.00
24858;BME280;12935;50.782;6.074;2023-05-07T12:14:38;99601.00;;;18.25;100.00
24858;BME280;12935;50.782;6.074;2023-05-07T12:17:04;99594.56;;;18.28;100.00
24858;BME280;12935;50.782;6.074;2023-05-07T12:19:30;99599.31;;;18.27;100.00
24858;BME280;12935;50.782;6.074;2023-05-07T12:21:56;99606.41;;;18.28;100.00
24858;BME280;12935;50.782;6.074;2023-05-07T12:24:21;99603.31;;;18.26;100.00
24858;BME280;12935;50.782;6.074;2023-05-07T12:26:47;99608.63;;;18.33;100.00
24858;BME280;12935;50.782;6.074;2023-05-07T12:29:13;99617.78;;;18.43;100.00
24858;BME280;12935;50.782;6.074;2023-05-07T12:31:41;99620.78;;;18.48;100.00
24858;BME280;12935;50.782;6.074;2023-05-07T12:34:06;99610.84;;;18.51;100.00
24858;BME280;12935;50.782;6.074;2023-05-07T12:36:38;99613.28;;;18.62;100.00
24858;BME280;12935;50.782;6.074;2023-05-07T12:39:08;99622.56;;;18.68;100.00
24858;BME280;12935;50.782;6.074;2023-05-07T12:41:53;99616.19;;;18.92;100.00
24858;BME280;12935;50.782;6.074;2023-05-07T12:44:19;99610.94;;;19.07;100.00
24858;BME280;12935;50.782;6.074;2023-05-07T12:46:46;99610.91;;;19.20;100.00
24858;BME280;12935;50.782;6.074;2023-05-07T12:49:12;99612.34;;;19.46;100.00
24858;BME280;12935;50.782;6.074;2023-05-07T12:51:37;99609.63;;;19.77;100.00
24858;BME280;12935;50.782;6.074;2023-05-07T12:54:02;99607.09;;;19.92;100.00
24858;BME280;12935;50.782;6.074;2023-05-07T12:56:30;99617.91;;;19.99;100.00
24858;BME280;12935;50.782;6.074;2023-05-07T12:58:57;99615.84;;;20.21;100.00
24858;BME280;12935;50.782;6.074;2023-05-07T13:01:28;99615.19;;;20.39;100.00